Terminal Aerodrome Forecast
Issued by NWS

Home | Current Version | Previous Version | Text Only | Print | Product List | Glossary On
Versions: 1 2 3 4 5 6 7 8 9 10 11 12 13 14 15 16 17 18 19 20 21 22 23 24 25 26 27 28 29 30 31 32 33 34 35 36 37 38 39 40 41 42 43 44 45 46
000
FTUS46 KSEW 101908 AAW
TAFPAE
TAF AMD
KPAE 101908Z 1019/1118 15010KT P6SM SCT010 BKN050 OVC090
      TEMPO 1019/1021 5SM BR BKN010 OVC050
     FM102100 15010KT 5SM -RA SCT015 OVC040
     FM110200 16010KT P6SM BKN015 BKN040
     FM110800 16006KT P6SM OVC015
     FM111500 14012KT P6SM BKN015 BKN050 OVC120=

USA.gov is the U.S. government's official web portal to all federal, state and local government web resources and services.